Time;durP1;ratioP1;P1;durP2;ratioP2;P2;SDS_P1;SDS_P2;PMS_P1;PMS_P2;Temp;Humidity;BMP_temperature;BMP_pressure;BME280_temperature;BME280_humidity;BME280_pressure;Samples;Min_cycle;Max_cycle;Signal;HPM_P1;HPM_P2
2022/03/25 00:02:01;;;;;;;3.43;2.30;;;;;;;;;;5074662;28;20450;-70
2022/03/25 00:04:27;;;;;;;5.20;2.67;;;;;;;;;;5075557;28;20467;-70
2022/03/25 00:06:53;;;;;;;3.03;1.83;;;;;;;;;;5075693;28;20437;-71
2022/03/25 00:09:19;;;;;;;4.43;2.03;;;;;;;;;;5074960;28;20783;-70
2022/03/25 00:11:46;;;;;;;3.73;1.80;;;;;;;;;;5075217;28;20465;-70
2022/03/25 00:14:12;;;;;;;5.40;2.47;;;;;;;;;;5075413;28;20415;-71
2022/03/25 00:16:39;;;;;;;5.73;2.10;;;;;;;;;;5075429;28;20503;-69
2022/03/25 00:19:05;;;;;;;3.50;2.27;;;;;;;;;;5074776;28;20421;-70
2022/03/25 00:21:30;;;;;;;7.43;2.13;;;;;;;;;;5075129;28;20431;-68
2022/03/25 00:23:56;;;;;;;3.37;1.87;;;;;;;;;;5075193;28;20429;-68
2022/03/25 00:26:22;;;;;;;3.57;2.27;;;;;;;;;;5075232;28;20422;-68
2022/03/25 00:28:48;;;;;;;4.43;2.20;;;;;;;;;;5074789;28;20422;-69
2022/03/25 00:31:16;;;;;;;6.50;2.23;;;;;;;;;;5074698;28;20985;-69
2022/03/25 00:33:49;;;;;;;3.10;1.90;;;;;;;;;;5074961;28;20407;-68
2022/03/25 00:36:16;;;;;;;4.60;2.40;;;;;;;;;;5074819;28;20434;-68
2022/03/25 00:38:42;;;;;;;3.70;2.10;;;;;;;;;;5074423;28;20419;-68
2022/03/25 00:41:08;;;;;;;2.70;1.80;;;;;;;;;;5075760;28;20433;-68
2022/03/25 00:43:34;;;;;;;6.53;2.40;;;;;;;;;;5074534;28;20451;-68
2022/03/25 00:46:00;;;;;;;5.70;2.37;;;;;;;;;;5074650;28;20411;-69
2022/03/25 00:48:29;;;;;;;4.20;2.20;;;;;;;;;;5074410;28;20422;-69
2022/03/25 00:50:55;;;;;;;5.30;2.17;;;;;;;;;;5074362;28;20511;-70
2022/03/25 00:53:21;;;;;;;4.60;2.13;;;;;;;;;;5074609;28;20407;-70
2022/03/25 00:55:47;;;;;;;3.30;2.10;;;;;;;;;;5074562;28;21032;-70
2022/03/25 00:58:15;;;;;;;3.50;2.20;;;;;;;;;;5074606;28;20501;-70
2022/03/25 01:00:44;;;;;;;3.70;2.33;;;;;;;;;;5073982;28;20431;-69
2022/03/25 01:03:10;;;;;;;3.83;2.10;;;;;;;;;;5074357;28;20430;-68
2022/03/25 01:05:36;;;;;;;4.80;2.27;;;;;;;;;;5074390;28;20421;-69
2022/03/25 01:08:03;;;;;;;5.90;2.40;;;;;;;;;;5074238;28;20818;-68
2022/03/25 01:10:29;;;;;;;4.37;2.30;;;;;;;;;;5073717;28;20411;-69
2022/03/25 01:12:55;;;;;;;6.40;2.40;;;;;;;;;;5072883;28;20465;-69
2022/03/25 01:15:21;;;;;;;2.83;1.87;;;;;;;;;;5074128;28;20840;-69
2022/03/25 01:17:47;;;;;;;4.20;2.20;;;;;;;;;;5074217;28;20414;-69
2022/03/25 01:20:13;;;;;;;5.03;2.57;;;;;;;;;;5073705;28;20403;-69
2022/03/25 01:22:39;;;;;;;3.67;2.07;;;;;;;;;;5075518;28;20475;-70
2022/03/25 01:25:07;;;;;;;4.33;2.33;;;;;;;;;;5074065;28;20743;-69
2022/03/25 01:27:33;;;;;;;5.70;2.40;;;;;;;;;;5074215;28;20426;-70
2022/03/25 01:29:59;;;;;;;4.37;2.63;;;;;;;;;;5073521;28;20415;-70
2022/03/25 01:32:25;;;;;;;4.73;2.37;;;;;;;;;;5073746;28;20818;-70
2022/03/25 01:34:51;;;;;;;4.30;2.63;;;;;;;;;;5073866;28;20415;-70
2022/03/25 01:37:17;;;;;;;4.30;2.40;;;;;;;;;;5073904;28;20411;-69
2022/03/25 01:39:44;;;;;;;6.93;2.60;;;;;;;;;;5073264;28;20774;-70
2022/03/25 01:42:10;;;;;;;4.20;2.40;;;;;;;;;;5073665;28;20783;-69
2022/03/25 01:44:36;;;;;;;4.20;2.73;;;;;;;;;;5073347;28;20426;-69
2022/03/25 01:47:03;;;;;;;4.17;2.43;;;;;;;;;;5073644;28;20445;-69
2022/03/25 01:49:29;;;;;;;4.67;2.97;;;;;;;;;;5073041;28;20986;-70
2022/03/25 01:52:00;;;;;;;4.83;2.77;;;;;;;;;;5073195;28;20480;-70
2022/03/25 01:54:28;;;;;;;3.83;2.67;;;;;;;;;;5073554;28;20411;-69
2022/03/25 01:56:56;;;;;;;4.50;2.53;;;;;;;;;;5073519;28;20403;-70
2022/03/25 01:59:22;;;;;;;3.77;2.33;;;;;;;;;;5073019;28;20413;-69
2022/03/25 02:01:48;;;;;;;4.10;2.97;;;;;;;;;;5073226;28;20542;-70
2022/03/25 02:04:15;;;;;;;4.47;2.57;;;;;;;;;;5073398;28;20956;-69
2022/03/25 02:06:41;;;;;;;6.23;2.20;;;;;;;;;;5073267;28;20419;-70
2022/03/25 02:09:07;;;;;;;3.67;2.20;;;;;;;;;;5072691;28;20415;-70
2022/03/25 02:11:34;;;;;;;4.23;2.50;;;;;;;;;;5072936;28;20806;-69
2022/03/25 02:14:00;;;;;;;7.80;2.43;;;;;;;;;;5073106;28;20471;-69
2022/03/25 02:16:36;;;;;;;5.43;3.07;;;;;;;;;;5072926;28;20422;-70
2022/03/25 02:19:02;;;;;;;6.83;3.00;;;;;;;;;;5072545;28;20865;-68
2022/03/25 02:21:29;;;;;;;4.87;3.73;;;;;;;;;;5072911;28;20462;-68
2022/03/25 02:23:55;;;;;;;11.50;2.90;;;;;;;;;;5072666;28;20402;-69
2022/03/25 02:26:22;;;;;;;7.23;3.10;;;;;;;;;;5072881;28;20586;-68
2022/03/25 02:28:48;;;;;;;5.73;3.00;;;;;;;;;;5072309;28;20414;-68
2022/03/25 02:31:16;;;;;;;5.97;3.13;;;;;;;;;;5072473;28;20528;-68
2022/03/25 02:33:42;;;;;;;8.80;3.03;;;;;;;;;;5072751;28;20406;-68
2022/03/25 02:36:08;;;;;;;9.50;2.93;;;;;;;;;;5072616;28;20499;-68
2022/03/25 02:38:35;;;;;;;5.67;3.50;;;;;;;;;;5072314;28;20911;-68
2022/03/25 02:41:01;;;;;;;6.70;2.40;;;;;;;;;;5072429;28;21110;-68
2022/03/25 02:43:27;;;;;;;4.73;2.50;;;;;;;;;;5072475;28;20446;-68
2022/03/25 02:45:53;;;;;;;4.37;2.30;;;;;;;;;;5072380;28;20457;-69
2022/03/25 02:48:19;;;;;;;4.60;2.87;;;;;;;;;;5072328;28;20456;-69
2022/03/25 02:50:46;;;;;;;5.70;2.67;;;;;;;;;;5071887;28;20427;-69
2022/03/25 02:53:13;;;;;;;4.00;2.57;;;;;;;;;;5072295;28;20971;-69
2022/03/25 02:55:39;;;;;;;5.50;3.20;;;;;;;;;;5072254;28;20446;-69
2022/03/25 02:58:06;;;;;;;4.50;2.90;;;;;;;;;;5072226;28;20402;-69
2022/03/25 03:00:32;;;;;;;4.63;2.40;;;;;;;;;;5071667;28;20748;-69
2022/03/25 03:03:00;;;;;;;5.10;3.07;;;;;;;;;;5072093;28;20434;-69
2022/03/25 03:05:27;;;;;;;4.10;2.73;;;;;;;;;;5072052;28;20417;-69
2022/03/25 03:07:53;;;;;;;5.23;3.07;;;;;;;;;;5072120;28;20477;-69
2022/03/25 03:10:19;;;;;;;4.57;2.70;;;;;;;;;;5071485;28;20419;-69
2022/03/25 03:12:45;;;;;;;5.00;2.87;;;;;;;;;;5071972;28;20925;-69
2022/03/25 03:15:13;;;;;;;4.97;3.10;;;;;;;;;;5072068;28;20410;-69
2022/03/25 03:17:39;;;;;;;4.10;2.60;;;;;;;;;;5071821;28;20407;-67
2022/03/25 03:20:06;;;;;;;4.30;2.90;;;;;;;;;;5071432;28;20438;-68
2022/03/25 03:22:32;;;;;;;3.87;2.50;;;;;;;;;;5071850;28;20438;-69
2022/03/25 03:24:58;;;;;;;4.53;2.60;;;;;;;;;;5071861;28;20421;-69
2022/03/25 03:27:25;;;;;;;3.70;2.40;;;;;;;;;;5071690;28;20501;-69
2022/03/25 03:29:51;;;;;;;4.57;2.60;;;;;;;;;;5071340;28;20420;-68
2022/03/25 03:32:18;;;;;;;4.20;2.60;;;;;;;;;;5071564;28;20466;-68
2022/03/25 03:34:44;;;;;;;5.03;2.80;;;;;;;;;;5071390;28;20415;-68
2022/03/25 03:37:10;;;;;;;4.80;2.60;;;;;;;;;;5071468;28;20910;-69
2022/03/25 03:39:36;;;;;;;3.90;2.60;;;;;;;;;;5071120;28;20771;-69
2022/03/25 03:42:05;;;;;;;4.77;2.87;;;;;;;;;;5071467;28;20435;-70
2022/03/25 03:44:31;;;;;;;4.07;2.80;;;;;;;;;;5071597;28;20415;-70
2022/03/25 03:46:57;;;;;;;5.57;2.90;;;;;;;;;;5071603;28;20493;-70
2022/03/25 03:49:23;;;;;;;3.70;2.50;;;;;;;;;;5071060;28;20429;-70
2022/03/25 03:51:49;;;;;;;4.90;2.77;;;;;;;;;;5071406;28;20466;-69
2022/03/25 03:54:15;;;;;;;4.00;2.53;;;;;;;;;;5071598;28;20399;-69
2022/03/25 03:56:42;;;;;;;4.00;2.73;;;;;;;;;;5071502;28;20890;-69
2022/03/25 03:59:08;;;;;;;5.80;3.23;;;;;;;;;;5071036;28;20415;-69
2022/03/25 04:01:34;;;;;;;3.33;2.50;;;;;;;;;;5071150;28;20485;-69
2022/03/25 04:04:00;;;;;;;4.13;2.70;;;;;;;;;;5071450;28;20414;-68
2022/03/25 04:06:27;;;;;;;4.10;2.70;;;;;;;;;;5071306;28;20863;-70
2022/03/25 04:08:53;;;;;;;7.10;2.87;;;;;;;;;;5071114;28;20407;-70
2022/03/25 04:11:19;;;;;;;7.80;3.17;;;;;;;;;;5071098;28;20537;-70
2022/03/25 04:13:45;;;;;;;5.27;2.50;;;;;;;;;;5071292;28;20502;-69
2022/03/25 04:16:12;;;;;;;4.03;2.43;;;;;;;;;;5071328;28;20442;-68
2022/03/25 04:18:38;;;;;;;5.70;3.20;;;;;;;;;;5070925;28;20418;-68
2022/03/25 04:21:04;;;;;;;4.23;2.77;;;;;;;;;;5071030;28;20442;-68
2022/03/25 04:23:30;;;;;;;4.57;3.23;;;;;;;;;;5071258;28;20771;-68
2022/03/25 04:25:56;;;;;;;3.90;2.53;;;;;;;;;;5071124;28;20410;-68
2022/03/25 04:28:22;;;;;;;4.90;3.10;;;;;;;;;;5070932;28;20411;-68
2022/03/25 04:30:48;;;;;;;4.33;2.70;;;;;;;;;;5070716;28;20843;-69
2022/03/25 04:33:14;;;;;;;3.80;2.50;;;;;;;;;;5071156;28;20487;-69
2022/03/25 04:35:40;;;;;;;3.97;2.60;;;;;;;;;;5071064;28;20439;-68
2022/03/25 04:38:06;;;;;;;5.60;2.77;;;;;;;;;;5071096;28;20551;-69
2022/03/25 04:40:33;;;;;;;3.90;2.53;;;;;;;;;;5070606;28;20441;-69
2022/03/25 04:43:00;;;;;;;4.40;2.67;;;;;;;;;;5071029;28;20507;-69
2022/03/25 04:45:26;;;;;;;3.70;2.60;;;;;;;;;;5071052;28;20842;-69
2022/03/25 04:47:53;;;;;;;4.70;2.87;;;;;;;;;;5075367;28;20498;-68
2022/03/25 04:50:19;;;;;;;3.40;2.10;;;;;;;;;;5074124;28;20938;-68
2022/03/25 04:52:45;;;;;;;3.10;2.43;;;;;;;;;;5074541;28;20458;-68
2022/03/25 04:55:11;;;;;;;3.40;2.33;;;;;;;;;;5075771;28;20398;-68
2022/03/25 04:57:41;;;;;;;5.43;2.77;;;;;;;;;;5074566;28;20402;-68
2022/03/25 05:00:07;;;;;;;3.67;2.37;;;;;;;;;;5074026;28;20410;-68
2022/03/25 05:02:34;;;;;;;6.10;2.80;;;;;;;;;;5074258;28;20946;-68
2022/03/25 05:05:00;;;;;;;7.80;3.13;;;;;;;;;;5074483;28;20555;-68
2022/03/25 05:07:26;;;;;;;4.00;2.90;;;;;;;;;;5074351;28;20410;-69
2022/03/25 05:09:53;;;;;;;6.50;3.03;;;;;;;;;;5073774;28;20516;-68
2022/03/25 05:12:19;;;;;;;3.60;2.53;;;;;;;;;;5092407;28;20464;-68
2022/03/25 05:14:45;;;;;;;4.30;2.90;;;;;;;;;;5075601;28;20410;-68
2022/03/25 05:17:11;;;;;;;6.10;2.63;;;;;;;;;;5082305;28;20405;-68
2022/03/25 05:19:37;;;;;;;6.00;2.70;;;;;;;;;;5094057;28;20424;-68
2022/03/25 05:22:04;;;;;;;5.20;2.60;;;;;;;;;;5094340;28;20426;-68
2022/03/25 05:24:30;;;;;;;5.50;2.97;;;;;;;;;;5094429;28;20500;-68
2022/03/25 05:26:59;;;;;;;5.20;2.90;;;;;;;;;;5095825;28;20416;-68
2022/03/25 05:29:26;;;;;;;6.40;2.87;;;;;;;;;;5093781;28;20414;-67
2022/03/25 05:31:52;;;;;;;5.50;3.43;;;;;;;;;;5092697;28;21075;-68
2022/03/25 05:34:18;;;;;;;4.60;3.20;;;;;;;;;;5093292;28;20497;-69
2022/03/25 05:36:44;;;;;;;5.20;2.90;;;;;;;;;;5093085;28;20501;-69
2022/03/25 05:39:11;;;;;;;4.63;2.70;;;;;;;;;;5090900;28;20454;-68
2022/03/25 05:41:38;;;;;;;4.77;2.73;;;;;;;;;;5094231;28;20466;-69
2022/03/25 05:44:04;;;;;;;4.93;3.13;;;;;;;;;;5092715;28;21119;-69
2022/03/25 05:46:30;;;;;;;6.00;3.40;;;;;;;;;;5091522;28;20437;-69
2022/03/25 05:48:59;;;;;;;7.63;3.33;;;;;;;;;;5091483;28;20449;-69
2022/03/25 05:51:25;;;;;;;4.03;2.67;;;;;;;;;;5092565;28;20468;-70
2022/03/25 05:53:52;;;;;;;4.73;2.73;;;;;;;;;;5088816;28;20571;-69
2022/03/25 05:56:18;;;;;;;4.73;3.07;;;;;;;;;;5093027;28;20463;-70
2022/03/25 05:58:45;;;;;;;11.87;2.70;;;;;;;;;;5092126;28;20410;-68
2022/03/25 06:01:11;;;;;;;8.77;2.93;;;;;;;;;;5088810;28;20780;-69
2022/03/25 06:03:37;;;;;;;10.53;4.43;;;;;;;;;;5092644;28;20409;-69
2022/03/25 06:06:07;;;;;;;5.80;3.20;;;;;;;;;;5093321;28;20968;-71
2022/03/25 06:08:33;;;;;;;7.03;2.90;;;;;;;;;;5093026;28;20983;-70
2022/03/25 06:11:00;;;;;;;11.23;3.33;;;;;;;;;;5093073;28;20495;-72
2022/03/25 06:13:28;;;;;;;6.03;3.70;;;;;;;;;;5094683;28;20398;-72
2022/03/25 06:15:55;;;;;;;7.53;3.90;;;;;;;;;;5093252;28;20861;-69
2022/03/25 06:18:21;;;;;;;9.67;4.07;;;;;;;;;;5081394;28;20411;-70
2022/03/25 06:20:48;;;;;;;8.60;4.87;;;;;;;;;;5072607;28;20514;-70
2022/03/25 06:23:14;;;;;;;6.40;3.73;;;;;;;;;;5072923;28;20415;-70
2022/03/25 06:25:41;;;;;;;12.27;5.33;;;;;;;;;;5072832;28;20453;-69
2022/03/25 06:28:08;;;;;;;8.00;3.63;;;;;;;;;;5072739;28;20411;-70
2022/03/25 06:30:36;;;;;;;8.13;5.43;;;;;;;;;;5072144;28;20411;-70
2022/03/25 06:33:06;;;;;;;7.70;4.53;;;;;;;;;;5072506;28;21039;-70
2022/03/25 06:35:33;;;;;;;6.00;4.67;;;;;;;;;;5087420;28;20949;-70
2022/03/25 06:37:59;;;;;;;7.47;5.20;;;;;;;;;;5092805;28;20406;-70
2022/03/25 06:40:27;;;;;;;11.50;6.00;;;;;;;;;;5092120;28;20402;-69
2022/03/25 06:42:54;;;;;;;14.80;5.60;;;;;;;;;;5092758;28;20496;-69
2022/03/25 06:45:22;;;;;;;18.43;8.00;;;;;;;;;;5092693;28;20402;-70
2022/03/25 06:47:48;;;;;;;15.23;6.50;;;;;;;;;;5092682;28;20406;-68
2022/03/25 06:50:16;;;;;;;17.10;6.80;;;;;;;;;;5092347;28;20406;-68
2022/03/25 06:52:43;;;;;;;17.33;6.23;;;;;;;;;;5092352;28;20462;-69
2022/03/25 06:55:10;;;;;;;28.77;7.43;;;;;;;;;;5093111;28;20414;-68
2022/03/25 06:57:37;;;;;;;18.27;6.77;;;;;;;;;;5091416;28;20414;-68
2022/03/25 07:00:05;;;;;;;14.97;6.47;;;;;;;;;;5093321;28;20410;-69
2022/03/25 07:02:34;;;;;;;17.63;6.37;;;;;;;;;;5093209;28;20870;-69
2022/03/25 07:05:02;;;;;;;10.30;6.10;;;;;;;;;;5092864;28;20500;-68
2022/03/25 07:07:31;;;;;;;12.10;6.50;;;;;;;;;;5093616;28;20437;-68
2022/03/25 07:09:58;;;;;;;9.90;5.90;;;;;;;;;;5091477;28;20449;-68
2022/03/25 07:12:25;;;;;;;10.60;7.03;;;;;;;;;;5093502;28;20456;-68
2022/03/25 07:14:52;;;;;;;11.90;5.90;;;;;;;;;;5092323;28;20441;-68
2022/03/25 07:17:19;;;;;;;13.53;5.97;;;;;;;;;;5093524;28;20450;-68
2022/03/25 07:19:46;;;;;;;11.27;5.80;;;;;;;;;;5093140;28;20421;-68
2022/03/25 07:22:13;;;;;;;14.80;6.37;;;;;;;;;;5093148;28;20437;-68
2022/03/25 07:24:40;;;;;;;13.20;6.20;;;;;;;;;;5093469;28;20410;-68
2022/03/25 07:27:07;;;;;;;10.27;5.60;;;;;;;;;;5093301;28;20410;-70
2022/03/25 07:29:34;;;;;;;14.60;6.80;;;;;;;;;;5092751;28;20462;-68
2022/03/25 07:32:01;;;;;;;10.60;5.47;;;;;;;;;;5091694;28;20468;-68
2022/03/25 07:34:27;;;;;;;10.70;6.00;;;;;;;;;;5091908;28;20421;-68
2022/03/25 07:36:53;;;;;;;12.37;6.43;;;;;;;;;;5091975;28;20409;-69
2022/03/25 07:39:20;;;;;;;8.47;5.60;;;;;;;;;;5091432;28;20402;-69
2022/03/25 07:41:46;;;;;;;10.60;6.20;;;;;;;;;;5091698;28;20437;-69
2022/03/25 07:44:12;;;;;;;9.50;5.53;;;;;;;;;;5091478;28;20409;-68
2022/03/25 07:46:39;;;;;;;9.53;6.40;;;;;;;;;;5091045;28;20416;-68
2022/03/25 07:49:06;;;;;;;10.93;5.87;;;;;;;;;;5090473;28;20418;-69
2022/03/25 07:51:32;;;;;;;10.07;6.53;;;;;;;;;;5090366;28;20550;-69
2022/03/25 07:53:59;;;;;;;9.37;5.40;;;;;;;;;;5086599;28;20415;-69
2022/03/25 07:56:26;;;;;;;12.03;6.37;;;;;;;;;;5092353;28;20406;-69
2022/03/25 07:58:53;;;;;;;9.73;5.67;;;;;;;;;;5090830;28;20475;-69
2022/03/25 08:01:19;;;;;;;10.30;6.43;;;;;;;;;;5091380;28;20434;-69
2022/03/25 08:03:45;;;;;;;6.37;4.70;;;;;;;;;;5091598;28;20434;-69
2022/03/25 08:06:15;;;;;;;9.80;5.00;;;;;;;;;;5091521;28;20418;-69
2022/03/25 08:08:41;;;;;;;7.60;5.33;;;;;;;;;;5091244;28;20917;-71
2022/03/25 08:11:08;;;;;;;7.30;5.07;;;;;;;;;;5091219;28;20775;-68
2022/03/25 08:13:35;;;;;;;8.07;5.00;;;;;;;;;;5091612;28;20804;-69
2022/03/25 08:16:01;;;;;;;6.87;5.03;;;;;;;;;;5091130;28;20402;-69
2022/03/25 08:18:28;;;;;;;11.00;4.77;;;;;;;;;;5089874;28;20430;-69
2022/03/25 08:20:56;;;;;;;6.97;4.97;;;;;;;;;;5089922;28;20440;-70
2022/03/25 08:28:54;;;;;;;6.93;4.53;;;;;;;;;;5096378;28;20424;-70
2022/03/25 08:31:21;;;;;;;6.87;4.87;;;;;;;;;;5094839;28;20468;-70
2022/03/25 08:33:48;;;;;;;8.77;5.33;;;;;;;;;;5094085;28;20957;-69
2022/03/25 08:36:17;;;;;;;6.30;4.30;;;;;;;;;;5093722;28;20422;-69
2022/03/25 08:38:44;;;;;;;7.60;4.63;;;;;;;;;;5082934;28;20477;-69
2022/03/25 08:41:11;;;;;;;7.13;4.60;;;;;;;;;;5094341;28;20442;-69
2022/03/25 08:43:39;;;;;;;8.43;5.67;;;;;;;;;;5095077;28;20496;-69
2022/03/25 08:46:09;;;;;;;11.10;5.70;;;;;;;;;;5094987;28;20418;-70
2022/03/25 08:48:36;;;;;;;6.47;4.10;;;;;;;;;;5094872;28;20406;-68
2022/03/25 08:51:03;;;;;;;8.00;4.97;;;;;;;;;;5094769;28;20453;-70
2022/03/25 08:53:30;;;;;;;8.37;5.33;;;;;;;;;;5095030;28;20405;-70
2022/03/25 08:55:57;;;;;;;8.40;5.10;;;;;;;;;;5094926;28;20406;-69
2022/03/25 08:58:23;;;;;;;9.93;5.17;;;;;;;;;;5094656;28;20402;-69
2022/03/25 09:00:50;;;;;;;8.20;6.00;;;;;;;;;;5094453;28;20433;-69
2022/03/25 09:03:20;;;;;;;8.17;5.27;;;;;;;;;;5094784;28;20433;-69
2022/03/25 09:05:47;;;;;;;8.90;5.20;;;;;;;;;;5094743;28;20405;-69
2022/03/25 09:08:15;;;;;;;8.20;4.80;;;;;;;;;;5094735;28;20409;-70
2022/03/25 09:10:42;;;;;;;7.37;5.07;;;;;;;;;;5094132;28;20513;-68
2022/03/25 09:13:09;;;;;;;13.13;6.83;;;;;;;;;;5094800;28;20540;-67
2022/03/25 09:15:35;;;;;;;9.73;5.67;;;;;;;;;;5094539;28;20421;-68
2022/03/25 09:18:02;;;;;;;12.97;6.43;;;;;;;;;;5094665;28;20731;-68
2022/03/25 09:20:30;;;;;;;13.80;6.40;;;;;;;;;;5093984;28;20405;-67
2022/03/25 09:22:57;;;;;;;7.60;5.77;;;;;;;;;;5094530;28;20471;-67
2022/03/25 09:25:24;;;;;;;8.70;5.80;;;;;;;;;;5094578;28;20471;-68
2022/03/25 09:27:52;;;;;;;6.90;4.80;;;;;;;;;;5094428;28;20414;-68
2022/03/25 09:30:19;;;;;;;8.73;5.43;;;;;;;;;;5093770;28;20471;-68
2022/03/25 09:32:46;;;;;;;7.60;4.83;;;;;;;;;;5093497;28;20468;-67
2022/03/25 09:35:13;;;;;;;7.73;4.70;;;;;;;;;;5094214;28;20417;-68
2022/03/25 09:37:39;;;;;;;5.87;4.73;;;;;;;;;;5094160;28;20452;-67
2022/03/25 09:40:08;;;;;;;7.13;4.97;;;;;;;;;;5093545;28;20417;-68
2022/03/25 09:42:35;;;;;;;7.43;4.33;;;;;;;;;;5094053;28;20461;-68
2022/03/25 09:45:04;;;;;;;6.43;5.10;;;;;;;;;;5094038;28;20455;-68
2022/03/25 09:47:32;;;;;;;6.13;3.77;;;;;;;;;;5093910;28;20416;-68
2022/03/25 09:50:02;;;;;;;6.17;4.60;;;;;;;;;;5093747;28;20420;-69
2022/03/25 09:52:31;;;;;;;5.33;4.17;;;;;;;;;;5093544;28;20464;-68
2022/03/25 09:54:58;;;;;;;8.93;3.93;;;;;;;;;;5093759;28;20402;-68
2022/03/25 09:57:28;;;;;;;6.07;3.63;;;;;;;;;;5093837;28;20462;-68
2022/03/25 09:59:56;;;;;;;5.03;4.20;;;;;;;;;;5093430;28;20621;-68
2022/03/25 10:02:24;;;;;;;5.90;3.83;;;;;;;;;;5093598;28;20452;-69
2022/03/25 10:04:52;;;;;;;7.80;3.90;;;;;;;;;;5093705;28;20409;-68
2022/03/25 10:07:21;;;;;;;6.30;3.80;;;;;;;;;;5093497;28;20913;-68
2022/03/25 10:09:49;;;;;;;4.40;3.40;;;;;;;;;;5093126;28;20423;-69
2022/03/25 10:12:26;;;;;;;4.80;3.90;;;;;;;;;;5093312;28;20457;-68
2022/03/25 10:15:12;;;;;;;4.23;3.37;;;;;;;;;;5093423;28;20409;-69
2022/03/25 10:17:56;;;;;;;5.07;3.40;;;;;;;;;;5093472;28;20409;-68
2022/03/25 10:20:27;;;;;;;5.20;3.60;;;;;;;;;;5092077;28;20401;-67
2022/03/25 10:23:00;;;;;;;4.37;3.80;;;;;;;;;;5093024;28;20551;-67
2022/03/25 10:25:36;;;;;;;5.10;3.00;;;;;;;;;;5092942;28;20417;-67
2022/03/25 10:28:04;;;;;;;4.97;3.00;;;;;;;;;;5092866;28;20420;-67
2022/03/25 10:30:35;;;;;;;4.40;2.97;;;;;;;;;;5092483;28;20879;-68
2022/03/25 10:33:22;;;;;;;3.40;2.97;;;;;;;;;;5093049;28;20465;-67
2022/03/25 10:35:55;;;;;;;5.40;3.80;;;;;;;;;;5093102;28;20493;-67
2022/03/25 10:38:22;;;;;;;4.20;3.17;;;;;;;;;;5092801;28;20405;-66
2022/03/25 10:40:59;;;;;;;3.80;3.10;;;;;;;;;;5092603;28;20417;-67
2022/03/25 10:43:26;;;;;;;6.33;3.77;;;;;;;;;;5092860;28;20413;-66
2022/03/25 10:45:53;;;;;;;12.07;4.30;;;;;;;;;;5092682;28;20443;-67
2022/03/25 10:48:21;;;;;;;7.07;3.67;;;;;;;;;;5092817;28;20436;-68
2022/03/25 10:50:58;;;;;;;15.67;4.20;;;;;;;;;;5092329;28;20429;-67
2022/03/25 10:53:27;;;;;;;6.53;3.73;;;;;;;;;;5092657;28;20463;-65
2022/03/25 10:55:56;;;;;;;9.73;4.40;;;;;;;;;;5092610;28;20417;-65
2022/03/25 10:58:23;;;;;;;6.83;4.53;;;;;;;;;;5093930;28;20401;-65
2022/03/25 11:00:50;;;;;;;5.97;3.30;;;;;;;;;;5092199;28;20437;-65
2022/03/25 11:03:19;;;;;;;6.70;4.50;;;;;;;;;;5092395;28;20425;-66
2022/03/25 11:05:46;;;;;;;6.33;4.53;;;;;;;;;;5092511;28;20414;-66
2022/03/25 11:08:13;;;;;;;6.60;3.63;;;;;;;;;;5092388;28;20406;-66
2022/03/25 11:10:40;;;;;;;9.80;4.00;;;;;;;;;;5091866;28;20435;-66
2022/03/25 11:13:08;;;;;;;7.07;3.60;;;;;;;;;;5092230;28;20502;-66
2022/03/25 11:15:36;;;;;;;5.67;4.10;;;;;;;;;;5092291;28;20440;-67
2022/03/25 11:18:03;;;;;;;7.13;4.43;;;;;;;;;;5092414;28;20405;-67
2022/03/25 11:20:30;;;;;;;7.53;4.90;;;;;;;;;;5091894;28;20406;-67
2022/03/25 11:23:06;;;;;;;7.07;4.50;;;;;;;;;;5092248;28;20423;-66
2022/03/25 11:25:37;;;;;;;10.37;5.13;;;;;;;;;;5092107;28;20416;-64
2022/03/25 11:28:05;;;;;;;6.63;4.53;;;;;;;;;;5092080;28;20417;-65
2022/03/25 11:30:33;;;;;;;5.80;4.87;;;;;;;;;;5091592;28;20405;-65
2022/03/25 11:33:10;;;;;;;15.93;4.60;;;;;;;;;;5091809;28;20485;-68
2022/03/25 11:35:41;;;;;;;8.50;4.60;;;;;;;;;;5085896;28;20409;-66
2022/03/25 11:38:14;;;;;;;7.57;4.13;;;;;;;;;;5088917;28;20909;-64
2022/03/25 11:40:45;;;;;;;8.73;4.30;;;;;;;;;;5089034;28;20505;-64
2022/03/25 11:43:19;;;;;;;6.73;4.60;;;;;;;;;;5088985;28;20410;-66
2022/03/25 11:45:46;;;;;;;9.70;4.33;;;;;;;;;;5088801;28;20409;-66
2022/03/25 11:48:13;;;;;;;4.97;4.10;;;;;;;;;;5088872;28;20420;-65
2022/03/25 11:50:44;;;;;;;8.57;3.83;;;;;;;;;;5089601;28;20433;-66
2022/03/25 11:53:13;;;;;;;9.97;4.27;;;;;;;;;;5088909;28;20462;-65
2022/03/25 11:56:01;;;;;;;7.50;4.50;;;;;;;;;;5088013;28;20406;-66
2022/03/25 11:58:33;;;;;;;5.97;3.80;;;;;;;;;;5088322;28;20410;-66
2022/03/25 12:01:18;;;;;;;7.50;3.73;;;;;;;;;;5088378;28;20418;-65
2022/03/25 12:03:53;;;;;;;8.40;4.20;;;;;;;;;;5088833;28;20489;-65
2022/03/25 12:06:21;;;;;;;5.70;4.00;;;;;;;;;;5088556;28;20933;-66
2022/03/25 12:09:15;;;;;;;6.00;3.77;;;;;;;;;;5088572;28;20413;-65
2022/03/25 12:11:50;;;;;;;7.50;3.97;;;;;;;;;;5088812;28;20457;-65
2022/03/25 12:14:21;;;;;;;7.13;4.30;;;;;;;;;;5088890;28;20931;-66
2022/03/25 12:16:48;;;;;;;7.97;4.10;;;;;;;;;;5089209;28;20511;-65
2022/03/25 12:19:44;;;;;;;6.70;4.00;;;;;;;;;;5087224;28;20412;-66
2022/03/25 12:22:19;;;;;;;7.73;3.77;;;;;;;;;;5075511;28;20448;-65
2022/03/25 12:24:46;;;;;;;7.73;4.27;;;;;;;;;;5088142;28;20443;-66
2022/03/25 12:27:13;;;;;;;7.67;3.90;;;;;;;;;;5089613;28;20413;-66
2022/03/25 12:29:40;;;;;;;7.87;4.27;;;;;;;;;;5088357;28;20586;-66
2022/03/25 12:32:13;;;;;;;8.47;4.53;;;;;;;;;;5089260;28;20465;-64
2022/03/25 12:34:51;;;;;;;10.07;4.43;;;;;;;;;;5088195;28;20751;-65
2022/03/25 12:37:39;;;;;;;10.30;4.27;;;;;;;;;;5088179;28;20935;-66
2022/03/25 12:40:13;;;;;;;9.63;4.70;;;;;;;;;;5087682;28;20418;-65
2022/03/25 12:42:40;;;;;;;11.43;4.20;;;;;;;;;;5087438;28;20430;-66
2022/03/25 12:45:07;;;;;;;11.30;4.83;;;;;;;;;;5088295;28;20482;-66
2022/03/25 12:47:34;;;;;;;8.97;4.67;;;;;;;;;;5088099;28;21008;-65
2022/03/25 12:50:01;;;;;;;13.77;4.87;;;;;;;;;;5088219;28;20774;-66
2022/03/25 12:52:28;;;;;;;6.50;3.70;;;;;;;;;;5089524;28;20463;-65
2022/03/25 12:54:54;;;;;;;8.80;4.30;;;;;;;;;;5088398;28;20898;-66
2022/03/25 12:57:31;;;;;;;13.90;4.10;;;;;;;;;;5088049;28;20410;-67
2022/03/25 12:59:57;;;;;;;10.43;4.70;;;;;;;;;;5088015;28;20621;-67
2022/03/25 13:02:36;;;;;;;6.00;3.40;;;;;;;;;;5087705;28;20811;-66
2022/03/25 13:05:10;;;;;;;7.30;3.50;;;;;;;;;;5087884;28;20409;-66
2022/03/25 13:07:37;;;;;;;14.53;3.70;;;;;;;;;;5088639;28;20410;-66
2022/03/25 13:10:04;;;;;;;9.63;4.40;;;;;;;;;;5091079;28;20426;-66
2022/03/25 13:12:31;;;;;;;8.47;3.83;;;;;;;;;;5092035;28;21064;-65
2022/03/25 13:14:58;;;;;;;7.07;3.67;;;;;;;;;;5091500;28;20448;-65
2022/03/25 13:17:35;;;;;;;6.60;3.87;;;;;;;;;;5091205;28;20417;-66
2022/03/25 13:20:01;;;;;;;6.30;3.50;;;;;;;;;;5091096;28;20478;-66
2022/03/25 13:22:28;;;;;;;10.13;3.50;;;;;;;;;;5091240;28;20484;-66
2022/03/25 13:24:55;;;;;;;6.50;3.67;;;;;;;;;;5091044;28;20794;-66
2022/03/25 13:27:22;;;;;;;6.83;3.20;;;;;;;;;;5092436;28;20497;-66
2022/03/25 13:29:48;;;;;;;8.77;4.70;;;;;;;;;;5091335;28;20406;-66
2022/03/25 13:32:30;;;;;;;8.27;3.73;;;;;;;;;;5091488;28;20981;-65
2022/03/25 13:35:07;;;;;;;9.83;3.40;;;;;;;;;;5093149;28;20398;-64
2022/03/25 13:37:34;;;;;;;6.70;3.60;;;;;;;;;;5091279;28;20401;-64
2022/03/25 13:40:00;;;;;;;9.73;3.10;;;;;;;;;;5092373;28;20402;-67
2022/03/25 13:42:36;;;;;;;6.73;3.40;;;;;;;;;;5091595;28;20946;-64
2022/03/25 13:45:07;;;;;;;7.17;2.90;;;;;;;;;;5090876;28;20418;-66
2022/03/25 13:47:34;;;;;;;7.47;3.37;;;;;;;;;;5090974;28;20474;-66
2022/03/25 13:50:21;;;;;;;7.30;3.40;;;;;;;;;;5091299;28;20418;-65
2022/03/25 13:52:54;;;;;;;4.57;3.40;;;;;;;;;;5090652;28;20477;-65
2022/03/25 13:55:21;;;;;;;5.60;3.40;;;;;;;;;;5090646;28;20426;-65
2022/03/25 13:57:55;;;;;;;4.70;3.07;;;;;;;;;;5090547;28;20457;-66
2022/03/25 14:00:28;;;;;;;4.87;3.80;;;;;;;;;;5089502;28;20418;-66
2022/03/25 14:02:54;;;;;;;7.03;3.53;;;;;;;;;;5090292;28;20437;-66
2022/03/25 14:05:25;;;;;;;5.83;3.30;;;;;;;;;;5090687;28;20426;-66
2022/03/25 14:07:57;;;;;;;3.97;2.50;;;;;;;;;;5084953;28;20437;-66
2022/03/25 14:10:24;;;;;;;4.73;2.93;;;;;;;;;;5074881;28;20504;-67
2022/03/25 14:13:03;;;;;;;5.20;2.67;;;;;;;;;;5092115;28;20468;-67
2022/03/25 14:15:30;;;;;;;4.53;3.00;;;;;;;;;;5091660;28;20422;-66
2022/03/25 14:17:57;;;;;;;6.83;3.37;;;;;;;;;;5092265;28;20414;-66
2022/03/25 14:20:28;;;;;;;4.70;3.20;;;;;;;;;;5089503;28;20953;-66
2022/03/25 14:22:55;;;;;;;5.30;3.20;;;;;;;;;;5090118;28;20492;-65
2022/03/25 14:25:30;;;;;;;5.07;3.00;;;;;;;;;;5090540;28;20413;-67
2022/03/25 14:27:59;;;;;;;4.50;3.00;;;;;;;;;;5078668;28;20419;-66
2022/03/25 14:30:27;;;;;;;4.23;2.67;;;;;;;;;;5069590;28;20425;-66
2022/03/25 14:32:54;;;;;;;4.40;2.50;;;;;;;;;;5070497;28;20455;-66
2022/03/25 14:35:22;;;;;;;7.37;3.07;;;;;;;;;;5070244;28;20435;-66
2022/03/25 14:37:50;;;;;;;4.50;2.60;;;;;;;;;;5070248;28;20923;-66
2022/03/25 14:40:17;;;;;;;4.70;2.83;;;;;;;;;;5083190;28;20414;-66
2022/03/25 14:42:43;;;;;;;3.87;2.60;;;;;;;;;;5090123;28;20607;-66
2022/03/25 14:45:10;;;;;;;4.97;2.80;;;;;;;;;;5091755;28;20425;-66
2022/03/25 14:47:37;;;;;;;5.37;3.20;;;;;;;;;;5084824;28;20421;-66
2022/03/25 14:50:04;;;;;;;4.80;2.90;;;;;;;;;;5089555;28;20427;-67
2022/03/25 14:52:32;;;;;;;3.70;2.90;;;;;;;;;;5079082;28;20501;-66